sensor_id;sensor_type;location;lat;lon;timestamp;pressure;altitude;pressure_sealevel;temperature;humidity
1401;BME280;46518;48.842;8.926;2023-04-09T00:01:18;97812.31;;;5.89;82.71
1401;BME280;46518;48.842;8.926;2023-04-09T00:03:47;97803.44;;;5.83;82.98
1401;BME280;46518;48.842;8.926;2023-04-09T00:06:15;97810.88;;;5.93;82.01
1401;BME280;46518;48.842;8.926;2023-04-09T00:08:43;97809.47;;;5.91;81.56
1401;BME280;46518;48.842;8.926;2023-04-09T00:11:12;97803.84;;;5.87;82.52
1401;BME280;46518;48.842;8.926;2023-04-09T00:13:42;97806.47;;;5.87;81.86
1401;BME280;46518;48.842;8.926;2023-04-09T00:16:10;97799.63;;;5.86;82.10
1401;BME280;46518;48.842;8.926;2023-04-09T00:18:39;97802.25;;;5.93;82.24
1401;BME280;46518;48.842;8.926;2023-04-09T00:21:07;97804.84;;;5.86;81.75
1401;BME280;46518;48.842;8.926;2023-04-09T00:23:35;97808.03;;;5.81;82.49
1401;BME280;46518;48.842;8.926;2023-04-09T00:26:04;97801.00;;;5.75;82.12
1401;BME280;46518;48.842;8.926;2023-04-09T00:28:32;97800.00;;;5.76;82.49
1401;BME280;46518;48.842;8.926;2023-04-09T00:31:02;97804.84;;;5.79;81.99
1401;BME280;46518;48.842;8.926;2023-04-09T00:33:30;97801.22;;;5.80;82.48
1401;BME280;46518;48.842;8.926;2023-04-09T00:35:59;97796.41;;;5.91;82.31
1401;BME280;46518;48.842;8.926;2023-04-09T00:38:27;97794.59;;;5.78;82.25
1401;BME280;46518;48.842;8.926;2023-04-09T00:40:55;97795.16;;;5.73;82.16
1401;BME280;46518;48.842;8.926;2023-04-09T00:43:24;97796.53;;;5.56;82.96
1401;BME280;46518;48.842;8.926;2023-04-09T00:45:53;97792.06;;;5.43;83.88
1401;BME280;46518;48.842;8.926;2023-04-09T00:48:23;97790.41;;;5.29;85.12
1401;BME280;46518;48.842;8.926;2023-04-09T00:50:51;97790.91;;;5.11;86.96
1401;BME280;46518;48.842;8.926;2023-04-09T00:53:20;97790.28;;;5.02;88.76
1401;BME280;46518;48.842;8.926;2023-04-09T00:55:49;97795.16;;;5.12;89.48
1401;BME280;46518;48.842;8.926;2023-04-09T00:58:17;97785.59;;;5.32;88.40
1401;BME280;46518;48.842;8.926;2023-04-09T01:00:46;97789.88;;;5.53;87.21
1401;BME280;46518;48.842;8.926;2023-04-09T01:03:14;97791.09;;;5.51;86.75
1401;BME280;46518;48.842;8.926;2023-04-09T01:05:49;97792.13;;;5.63;86.16
1401;BME280;46518;48.842;8.926;2023-04-09T01:08:31;97796.97;;;5.59;85.52
1401;BME280;46518;48.842;8.926;2023-04-09T01:11:05;97788.91;;;5.61;85.13
1401;BME280;46518;48.842;8.926;2023-04-09T01:13:44;97795.75;;;5.62;85.16
1401;BME280;46518;48.842;8.926;2023-04-09T01:16:15;97795.94;;;5.60;85.11
1401;BME280;46518;48.842;8.926;2023-04-09T01:18:49;97793.16;;;5.69;85.59
1401;BME280;46518;48.842;8.926;2023-04-09T01:21:25;97790.13;;;5.65;85.64
1401;BME280;46518;48.842;8.926;2023-04-09T01:24:06;97784.72;;;5.67;85.12
1401;BME280;46518;48.842;8.926;2023-04-09T01:26:53;97787.75;;;5.77;85.07
1401;BME280;46518;48.842;8.926;2023-04-09T01:29:31;97793.56;;;5.79;84.77
1401;BME280;46518;48.842;8.926;2023-04-09T01:32:01;97786.72;;;5.65;85.37
1401;BME280;46518;48.842;8.926;2023-04-09T01:34:30;97789.88;;;5.53;86.22
1401;BME280;46518;48.842;8.926;2023-04-09T01:37:01;97790.44;;;5.35;87.96
1401;BME280;46518;48.842;8.926;2023-04-09T01:39:30;97793.31;;;5.54;88.26
1401;BME280;46518;48.842;8.926;2023-04-09T01:41:59;97786.50;;;5.59;87.96
1401;BME280;46518;48.842;8.926;2023-04-09T01:44:31;97790.38;;;5.77;88.16
1401;BME280;46518;48.842;8.926;2023-04-09T01:47:00;97785.53;;;5.80;87.52
1401;BME280;46518;48.842;8.926;2023-04-09T01:49:29;97790.75;;;5.67;87.41
1401;BME280;46518;48.842;8.926;2023-04-09T01:51:58;97796.59;;;5.82;88.51
1401;BME280;46518;48.842;8.926;2023-04-09T01:54:27;97796.59;;;5.76;87.61
1401;BME280;46518;48.842;8.926;2023-04-09T01:56:56;97793.53;;;5.66;88.92
1401;BME280;46518;48.842;8.926;2023-04-09T01:59:24;97793.78;;;5.84;88.90
1401;BME280;46518;48.842;8.926;2023-04-09T02:01:59;97792.59;;;5.80;89.18
1401;BME280;46518;48.842;8.926;2023-04-09T02:04:32;97790.00;;;5.93;89.39
1401;BME280;46518;48.842;8.926;2023-04-09T02:07:05;97790.84;;;6.07;88.98
1401;BME280;46518;48.842;8.926;2023-04-09T02:09:38;97782.63;;;6.17;87.71
1401;BME280;46518;48.842;8.926;2023-04-09T02:12:11;97790.66;;;6.29;87.79
1401;BME280;46518;48.842;8.926;2023-04-09T02:14:41;97784.44;;;6.43;87.66
1401;BME280;46518;48.842;8.926;2023-04-09T02:17:14;97781.41;;;6.53;87.05
1401;BME280;46518;48.842;8.926;2023-04-09T02:19:44;97785.22;;;6.50;86.61
1401;BME280;46518;48.842;8.926;2023-04-09T02:22:14;97784.44;;;6.43;86.12
1401;BME280;46518;48.842;8.926;2023-04-09T02:24:44;97785.84;;;6.45;86.40
1401;BME280;46518;48.842;8.926;2023-04-09T02:27:13;97787.66;;;6.52;86.23
1401;BME280;46518;48.842;8.926;2023-04-09T02:29:42;97777.19;;;6.52;86.05
1401;BME280;46518;48.842;8.926;2023-04-09T02:32:11;97781.78;;;6.63;85.90
1401;BME280;46518;48.842;8.926;2023-04-09T02:34:41;97782.22;;;6.60;86.08
1401;BME280;46518;48.842;8.926;2023-04-09T02:37:10;97781.78;;;6.56;85.58
1401;BME280;46518;48.842;8.926;2023-04-09T02:39:38;97779.00;;;6.58;86.12
1401;BME280;46518;48.842;8.926;2023-04-09T02:42:06;97781.41;;;6.53;85.62
1401;BME280;46518;48.842;8.926;2023-04-09T02:44:35;97781.59;;;6.51;86.07
1401;BME280;46518;48.842;8.926;2023-04-09T02:47:04;97779.81;;;6.52;85.55
1401;BME280;46518;48.842;8.926;2023-04-09T02:49:33;97780.19;;;6.48;86.48
1401;BME280;46518;48.842;8.926;2023-04-09T02:52:03;97780.19;;;6.55;86.41
1401;BME280;46518;48.842;8.926;2023-04-09T02:54:31;97769.16;;;6.40;86.26
1401;BME280;46518;48.842;8.926;2023-04-09T02:56:59;97775.97;;;6.61;86.64
1401;BME280;46518;48.842;8.926;2023-04-09T02:59:28;97774.13;;;6.75;86.26
1401;BME280;46518;48.842;8.926;2023-04-09T03:01:59;97769.47;;;6.83;86.14
1401;BME280;46518;48.842;8.926;2023-04-09T03:04:28;97768.91;;;6.75;85.63
1401;BME280;46518;48.842;8.926;2023-04-09T03:06:56;97765.72;;;6.53;85.66
1401;BME280;46518;48.842;8.926;2023-04-09T03:09:26;97771.34;;;6.50;85.25
1401;BME280;46518;48.842;8.926;2023-04-09T03:11:55;97761.69;;;6.43;85.75
1401;BME280;46518;48.842;8.926;2023-04-09T03:14:24;97765.94;;;6.44;86.19
1401;BME280;46518;48.842;8.926;2023-04-09T03:16:53;97759.47;;;6.54;86.35
1401;BME280;46518;48.842;8.926;2023-04-09T03:19:21;97764.09;;;6.65;86.32
1401;BME280;46518;48.842;8.926;2023-04-09T03:21:50;97764.69;;;6.67;85.56
1401;BME280;46518;48.842;8.926;2023-04-09T03:24:23;97759.47;;;6.60;85.29
1401;BME280;46518;48.842;8.926;2023-04-09T03:26:56;97759.66;;;6.59;85.95
1401;BME280;46518;48.842;8.926;2023-04-09T03:29:25;97769.13;;;6.60;85.80
1401;BME280;46518;48.842;8.926;2023-04-09T03:31:53;97763.69;;;6.68;86.20
1401;BME280;46518;48.842;8.926;2023-04-09T03:34:22;97762.88;;;6.74;85.90
1401;BME280;46518;48.842;8.926;2023-04-09T03:36:53;97768.31;;;6.79;85.52
1401;BME280;46518;48.842;8.926;2023-04-09T03:39:28;97759.84;;;6.70;84.58
1401;BME280;46518;48.842;8.926;2023-04-09T03:41:58;97765.34;;;6.49;85.05
1401;BME280;46518;48.842;8.926;2023-04-09T03:44:34;97758.06;;;6.51;85.81
1401;BME280;46518;48.842;8.926;2023-04-09T03:47:07;97756.28;;;6.52;85.62
1401;BME280;46518;48.842;8.926;2023-04-09T03:49:37;97766.31;;;6.48;85.78
1401;BME280;46518;48.842;8.926;2023-04-09T03:52:19;97762.09;;;6.40;86.33
1401;BME280;46518;48.842;8.926;2023-04-09T03:54:56;97758.28;;;6.50;86.06
1401;BME280;46518;48.842;8.926;2023-04-09T03:57:27;97764.50;;;6.62;85.90
1401;BME280;46518;48.842;8.926;2023-04-09T03:59:56;97758.66;;;6.60;85.80
1401;BME280;46518;48.842;8.926;2023-04-09T04:02:25;97764.13;;;6.45;85.22
1401;BME280;46518;48.842;8.926;2023-04-09T04:05:01;97765.09;;;6.24;84.48
1401;BME280;46518;48.842;8.926;2023-04-09T04:07:35;97762.44;;;5.84;86.13
1401;BME280;46518;48.842;8.926;2023-04-09T04:10:11;97761.50;;;6.05;85.55
1401;BME280;46518;48.842;8.926;2023-04-09T04:12:44;97761.09;;;6.08;86.15
1401;BME280;46518;48.842;8.926;2023-04-09T04:15:38;97769.53;;;6.03;85.30
1401;BME280;46518;48.842;8.926;2023-04-09T04:18:08;97765.28;;;5.89;85.31
1401;BME280;46518;48.842;8.926;2023-04-09T04:20:43;97769.63;;;5.55;86.24
1401;BME280;46518;48.842;8.926;2023-04-09T04:23:13;97771.94;;;5.30;87.96
1401;BME280;46518;48.842;8.926;2023-04-09T04:25:50;97772.66;;;5.04;90.55
1401;BME280;46518;48.842;8.926;2023-04-09T04:28:27;97778.69;;;5.11;93.15
1401;BME280;46518;48.842;8.926;2023-04-09T04:30:56;97776.00;;;5.46;91.54
1401;BME280;46518;48.842;8.926;2023-04-09T04:33:25;97770.06;;;5.79;91.50
1401;BME280;46518;48.842;8.926;2023-04-09T04:36:03;97776.75;;;6.01;90.45
1401;BME280;46518;48.842;8.926;2023-04-09T04:38:37;97772.75;;;6.19;89.74
1401;BME280;46518;48.842;8.926;2023-04-09T04:41:11;97775.38;;;6.19;89.77
1401;BME280;46518;48.842;8.926;2023-04-09T04:43:47;97778.59;;;6.08;89.41
1401;BME280;46518;48.842;8.926;2023-04-09T04:46:19;97776.13;;;5.93;89.15
1401;BME280;46518;48.842;8.926;2023-04-09T04:48:48;97782.59;;;5.97;89.56
1401;BME280;46518;48.842;8.926;2023-04-09T04:51:16;97775.38;;;6.12;89.24
1401;BME280;46518;48.842;8.926;2023-04-09T04:53:57;97774.97;;;6.09;89.54
1401;BME280;46518;48.842;8.926;2023-04-09T04:56:26;97778.38;;;6.16;88.55
1401;BME280;46518;48.842;8.926;2023-04-09T04:59:09;97781.78;;;6.16;88.32
1401;BME280;46518;48.842;8.926;2023-04-09T05:01:48;97775.38;;;6.19;88.18
1401;BME280;46518;48.842;8.926;2023-04-09T05:04:17;97787.00;;;5.96;88.06
1401;BME280;46518;48.842;8.926;2023-04-09T05:06:45;97786.81;;;5.98;89.43
1401;BME280;46518;48.842;8.926;2023-04-09T05:09:18;97778.78;;;6.06;89.16
1401;BME280;46518;48.842;8.926;2023-04-09T05:12:00;97788.25;;;6.27;88.78
1401;BME280;46518;48.842;8.926;2023-04-09T05:14:31;97786.22;;;6.36;88.67
1401;BME280;46518;48.842;8.926;2023-04-09T05:17:00;97782.22;;;6.20;87.96
1401;BME280;46518;48.842;8.926;2023-04-09T05:19:39;97779.38;;;6.08;87.85
1401;BME280;46518;48.842;8.926;2023-04-09T05:22:08;97785.63;;;6.00;88.22
1401;BME280;46518;48.842;8.926;2023-04-09T05:24:37;97783.00;;;6.00;87.91
1401;BME280;46518;48.842;8.926;2023-04-09T05:27:05;97783.41;;;6.04;88.20
1401;BME280;46518;48.842;8.926;2023-04-09T05:29:35;97789.38;;;5.91;87.47
1401;BME280;46518;48.842;8.926;2023-04-09T05:32:07;97791.38;;;5.82;88.04
1401;BME280;46518;48.842;8.926;2023-04-09T05:34:38;97790.66;;;6.02;88.04
1401;BME280;46518;48.842;8.926;2023-04-09T05:37:07;97789.03;;;6.08;87.60
1401;BME280;46518;48.842;8.926;2023-04-09T05:39:35;97787.38;;;5.87;87.61
1401;BME280;46518;48.842;8.926;2023-04-09T05:42:03;97786.75;;;5.91;89.04
1401;BME280;46518;48.842;8.926;2023-04-09T05:44:40;97791.06;;;6.12;88.62
1401;BME280;46518;48.842;8.926;2023-04-09T05:47:15;97800.91;;;6.23;88.42
1401;BME280;46518;48.842;8.926;2023-04-09T05:49:57;97797.88;;;6.13;87.90
1401;BME280;46518;48.842;8.926;2023-04-09T05:52:26;97786.91;;;5.63;90.00
1401;BME280;46518;48.842;8.926;2023-04-09T05:54:54;97795.16;;;5.60;90.88
1401;BME280;46518;48.842;8.926;2023-04-09T05:57:32;97799.75;;;5.58;92.74
1401;BME280;46518;48.842;8.926;2023-04-09T06:00:05;97793.41;;;5.87;92.05
1401;BME280;46518;48.842;8.926;2023-04-09T06:02:42;97792.06;;;6.04;91.42
1401;BME280;46518;48.842;8.926;2023-04-09T06:05:11;97788.25;;;6.07;89.84
1401;BME280;46518;48.842;8.926;2023-04-09T06:07:39;97796.03;;;5.94;90.16
1401;BME280;46518;48.842;8.926;2023-04-09T06:10:08;97801.84;;;5.82;91.54
1401;BME280;46518;48.842;8.926;2023-04-09T06:12:36;97790.63;;;5.95;91.18
1401;BME280;46518;48.842;8.926;2023-04-09T06:15:06;97789.44;;;6.04;91.91
1401;BME280;46518;48.842;8.926;2023-04-09T06:17:35;97789.25;;;6.19;90.81
1401;BME280;46518;48.842;8.926;2023-04-09T06:20:04;97806.75;;;6.25;90.98
1401;BME280;46518;48.842;8.926;2023-04-09T06:22:32;97800.31;;;6.41;90.97
1401;BME280;46518;48.842;8.926;2023-04-09T06:25:00;97796.69;;;6.16;90.96
1401;BME280;46518;48.842;8.926;2023-04-09T06:27:29;97804.28;;;6.04;92.49
1401;BME280;46518;48.842;8.926;2023-04-09T06:29:57;97801.91;;;6.09;93.43
1401;BME280;46518;48.842;8.926;2023-04-09T06:32:27;97800.91;;;6.23;93.07
1401;BME280;46518;48.842;8.926;2023-04-09T06:34:59;97796.88;;;6.41;93.54
1401;BME280;46518;48.842;8.926;2023-04-09T06:37:27;97804.13;;;6.65;92.54
1401;BME280;46518;48.842;8.926;2023-04-09T06:39:56;97810.75;;;6.75;92.48
1401;BME280;46518;48.842;8.926;2023-04-09T06:42:27;97804.69;;;6.87;92.16
1401;BME280;46518;48.842;8.926;2023-04-09T06:45:14;97807.09;;;6.96;90.63
1401;BME280;46518;48.842;8.926;2023-04-09T06:47:44;97813.53;;;7.06;90.88
1401;BME280;46518;48.842;8.926;2023-04-09T06:50:13;97816.72;;;7.15;90.52
1401;BME280;46518;48.842;8.926;2023-04-09T06:52:41;97814.28;;;7.27;90.30
1401;BME280;46518;48.842;8.926;2023-04-09T06:55:09;97813.00;;;7.36;90.24
1401;BME280;46518;48.842;8.926;2023-04-09T06:57:38;97814.38;;;7.52;89.72
1401;BME280;46518;48.842;8.926;2023-04-09T07:00:08;97819.75;;;7.64;89.41
1401;BME280;46518;48.842;8.926;2023-04-09T07:02:36;97820.53;;;7.71;89.05
1401;BME280;46518;48.842;8.926;2023-04-09T07:05:07;97824.06;;;7.90;88.84
1401;BME280;46518;48.842;8.926;2023-04-09T07:07:35;97827.41;;;8.04;88.51
1401;BME280;46518;48.842;8.926;2023-04-09T07:10:05;97824.13;;;8.15;88.08
1401;BME280;46518;48.842;8.926;2023-04-09T07:12:34;97815.34;;;8.28;88.05
1401;BME280;46518;48.842;8.926;2023-04-09T07:15:04;97821.56;;;8.40;87.76
1401;BME280;46518;48.842;8.926;2023-04-09T07:17:33;97827.13;;;8.50;87.12
1401;BME280;46518;48.842;8.926;2023-04-09T07:20:01;97814.28;;;8.67;86.82
1401;BME280;46518;48.842;8.926;2023-04-09T07:22:32;97817.16;;;8.84;86.14
1401;BME280;46518;48.842;8.926;2023-04-09T07:25:00;97818.47;;;8.93;85.64
1401;BME280;46518;48.842;8.926;2023-04-09T07:27:29;97821.97;;;9.05;84.88
1401;BME280;46518;48.842;8.926;2023-04-09T07:29:58;97818.66;;;9.17;84.35
1401;BME280;46518;48.842;8.926;2023-04-09T07:32:26;97813.53;;;9.22;83.51
1401;BME280;46518;48.842;8.926;2023-04-09T07:34:55;97822.50;;;9.33;82.04
1401;BME280;46518;48.842;8.926;2023-04-09T07:37:25;97818.03;;;9.33;80.94
1401;BME280;46518;48.842;8.926;2023-04-09T07:44:19;97820.59;;;9.58;79.63
1401;BME280;46518;48.842;8.926;2023-04-09T07:46:48;97819.41;;;9.72;79.17
1401;BME280;46518;48.842;8.926;2023-04-09T07:49:17;97825.16;;;9.81;78.02
1401;BME280;46518;48.842;8.926;2023-04-09T07:51:45;97824.91;;;9.83;77.38
1401;BME280;46518;48.842;8.926;2023-04-09T07:57:21;97824.66;;;10.03;75.10
1401;BME280;46518;48.842;8.926;2023-04-09T07:59:51;97816.31;;;10.06;73.97
1401;BME280;46518;48.842;8.926;2023-04-09T08:02:20;97819.78;;;10.18;73.89
1401;BME280;46518;48.842;8.926;2023-04-09T08:04:49;97822.47;;;10.30;73.02
1401;BME280;46518;48.842;8.926;2023-04-09T08:07:17;97820.53;;;10.37;72.45
1401;BME280;46518;48.842;8.926;2023-04-09T08:09:46;97816.19;;;10.43;71.15
1401;BME280;46518;48.842;8.926;2023-04-09T08:12:14;97815.97;;;10.44;70.40
1401;BME280;46518;48.842;8.926;2023-04-09T08:14:42;97817.69;;;10.50;68.78
1401;BME280;46518;48.842;8.926;2023-04-09T08:17:12;97824.91;;;10.55;68.37
1401;BME280;46518;48.842;8.926;2023-04-09T08:19:40;97832.34;;;10.58;67.62
1401;BME280;46518;48.842;8.926;2023-04-09T08:22:09;97839.22;;;10.47;66.56
1401;BME280;46518;48.842;8.926;2023-04-09T08:24:37;97841.13;;;10.28;66.19
1401;BME280;46518;48.842;8.926;2023-04-09T08:27:06;97842.91;;;10.16;67.10
1401;BME280;46518;48.842;8.926;2023-04-09T08:29:34;97841.47;;;10.32;67.75
1401;BME280;46518;48.842;8.926;2023-04-09T08:32:02;97842.22;;;10.51;68.07
1401;BME280;46518;48.842;8.926;2023-04-09T08:34:32;97839.34;;;10.64;68.01
1401;BME280;46518;48.842;8.926;2023-04-09T08:37:01;97831.09;;;10.61;67.80
1401;BME280;46518;48.842;8.926;2023-04-09T08:39:29;97841.19;;;10.64;67.58
1401;BME280;46518;48.842;8.926;2023-04-09T08:41:58;97838.09;;;10.67;67.41
1401;BME280;46518;48.842;8.926;2023-04-09T08:44:28;97840.38;;;10.75;66.91
1401;BME280;46518;48.842;8.926;2023-04-09T08:46:56;97844.16;;;10.67;64.25
1401;BME280;46518;48.842;8.926;2023-04-09T08:49:26;97839.50;;;10.81;63.35
1401;BME280;46518;48.842;8.926;2023-04-09T08:51:55;97831.47;;;10.76;60.95
1401;BME280;46518;48.842;8.926;2023-04-09T08:54:23;97829.84;;;10.75;59.90
1401;BME280;46518;48.842;8.926;2023-04-09T08:56:52;97837.75;;;10.75;58.06
1401;BME280;46518;48.842;8.926;2023-04-09T08:59:22;97839.59;;;10.98;58.79
1401;BME280;46518;48.842;8.926;2023-04-09T09:02:05;97835.34;;;11.09;58.24
1401;BME280;46518;48.842;8.926;2023-04-09T09:04:43;97827.91;;;11.17;58.00
1401;BME280;46518;48.842;8.926;2023-04-09T09:07:14;97835.56;;;11.19;57.98
1401;BME280;46518;48.842;8.926;2023-04-09T09:09:49;97847.69;;;11.43;57.79
1401;BME280;46518;48.842;8.926;2023-04-09T09:12:32;97842.75;;;11.47;55.02
1401;BME280;46518;48.842;8.926;2023-04-09T09:15:01;97841.38;;;11.44;55.51
1401;BME280;46518;48.842;8.926;2023-04-09T09:17:30;97846.66;;;11.44;55.69
1401;BME280;46518;48.842;8.926;2023-04-09T09:19:58;97840.47;;;11.39;55.59
1401;BME280;46518;48.842;8.926;2023-04-09T09:22:47;97832.78;;;11.49;55.39
1401;BME280;46518;48.842;8.926;2023-04-09T09:25:21;97830.94;;;11.50;53.78
1401;BME280;46518;48.842;8.926;2023-04-09T09:27:52;97846.84;;;11.55;53.42
1401;BME280;46518;48.842;8.926;2023-04-09T09:30:25;97838.34;;;11.64;53.13
1401;BME280;46518;48.842;8.926;2023-04-09T09:33:32;97834.22;;;11.69;52.13
1401;BME280;46518;48.842;8.926;2023-04-09T09:36:00;97843.00;;;11.74;51.22
1401;BME280;46518;48.842;8.926;2023-04-09T09:38:31;97843.91;;;11.92;50.79
1401;BME280;46518;48.842;8.926;2023-04-09T09:41:15;97852.88;;;11.91;50.60
1401;BME280;46518;48.842;8.926;2023-04-09T09:43:44;97841.25;;;11.92;50.60
1401;BME280;46518;48.842;8.926;2023-04-09T09:46:12;97844.22;;;11.95;50.02
1401;BME280;46518;48.842;8.926;2023-04-09T09:48:43;97843.41;;;11.95;49.39
1401;BME280;46518;48.842;8.926;2023-04-09T09:51:12;97837.41;;;12.11;48.68
1401;BME280;46518;48.842;8.926;2023-04-09T09:53:44;97837.31;;;12.06;48.30
1401;BME280;46518;48.842;8.926;2023-04-09T09:56:21;97845.28;;;11.94;48.14
1401;BME280;46518;48.842;8.926;2023-04-09T09:58:55;97841.94;;;11.99;47.84
1401;BME280;46518;48.842;8.926;2023-04-09T10:01:29;97844.88;;;12.02;48.57
1401;BME280;46518;48.842;8.926;2023-04-09T10:03:59;97845.53;;;12.09;48.60
1401;BME280;46518;48.842;8.926;2023-04-09T10:06:28;97836.97;;;12.02;46.79
1401;BME280;46518;48.842;8.926;2023-04-09T10:09:03;97841.53;;;12.07;46.66
1401;BME280;46518;48.842;8.926;2023-04-09T10:11:34;97840.03;;;12.11;47.25
1401;BME280;46518;48.842;8.926;2023-04-09T10:14:03;97845.06;;;12.13;47.03
1401;BME280;46518;48.842;8.926;2023-04-09T10:16:32;97843.16;;;12.25;46.84
1401;BME280;46518;48.842;8.926;2023-04-09T10:19:01;97843.50;;;12.28;47.12
1401;BME280;46518;48.842;8.926;2023-04-09T10:21:38;97837.41;;;12.28;47.45
1401;BME280;46518;48.842;8.926;2023-04-09T10:24:10;97848.53;;;12.30;47.58
1401;BME280;46518;48.842;8.926;2023-04-09T10:26:39;97839.03;;;12.29;47.37
1401;BME280;46518;48.842;8.926;2023-04-09T10:29:14;97825.25;;;12.27;46.72
1401;BME280;46518;48.842;8.926;2023-04-09T10:31:47;97797.03;;;12.11;45.87
1401;BME280;46518;48.842;8.926;2023-04-09T10:34:20;97799.19;;;12.14;46.12
1401;BME280;46518;48.842;8.926;2023-04-09T10:36:51;97791.50;;;12.12;45.11
1401;BME280;46518;48.842;8.926;2023-04-09T10:39:25;97814.38;;;12.23;46.04
1401;BME280;46518;48.842;8.926;2023-04-09T10:41:55;97819.34;;;12.37;46.45
1401;BME280;46518;48.842;8.926;2023-04-09T10:44:26;97802.94;;;12.35;47.07
1401;BME280;46518;48.842;8.926;2023-04-09T10:46:58;97806.06;;;12.32;47.61
1401;BME280;46518;48.842;8.926;2023-04-09T10:49:35;97826.06;;;12.44;47.48
1401;BME280;46518;48.842;8.926;2023-04-09T10:52:05;97789.25;;;12.38;47.50
1401;BME280;46518;48.842;8.926;2023-04-09T10:54:48;97815.19;;;12.58;47.52
1401;BME280;46518;48.842;8.926;2023-04-09T10:57:19;97780.16;;;12.45;48.03
1401;BME280;46518;48.842;8.926;2023-04-09T10:59:49;97800.16;;;12.58;47.60
1401;BME280;46518;48.842;8.926;2023-04-09T11:05:31;97805.13;;;12.71;47.60
1401;BME280;46518;48.842;8.926;2023-04-09T11:08:04;97779.66;;;12.65;46.40
1401;BME280;46518;48.842;8.926;2023-04-09T11:10:37;97780.63;;;12.59;43.07
1401;BME280;46518;48.842;8.926;2023-04-09T11:13:10;97809.66;;;12.76;42.38
1401;BME280;46518;48.842;8.926;2023-04-09T11:15:39;97788.41;;;12.66;41.90
1401;BME280;46518;48.842;8.926;2023-04-09T11:18:13;97787.19;;;12.73;42.00
1401;BME280;46518;48.842;8.926;2023-04-09T11:20:42;97785.91;;;12.76;42.21
1401;BME280;46518;48.842;8.926;2023-04-09T11:23:12;97799.66;;;12.78;42.73
1401;BME280;46518;48.842;8.926;2023-04-09T11:25:47;97768.63;;;12.68;42.85
1401;BME280;46518;48.842;8.926;2023-04-09T11:28:17;97794.03;;;12.91;40.87
1401;BME280;46518;48.842;8.926;2023-04-09T11:30:46;97768.41;;;12.92;41.41
1401;BME280;46518;48.842;8.926;2023-04-09T11:33:15;97779.25;;;12.90;41.90
1401;BME280;46518;48.842;8.926;2023-04-09T11:35:46;97771.75;;;12.48;40.30
1401;BME280;46518;48.842;8.926;2023-04-09T11:38:15;97779.50;;;12.72;41.17
1401;BME280;46518;48.842;8.926;2023-04-09T11:40:45;97789.97;;;12.84;42.09
1401;BME280;46518;48.842;8.926;2023-04-09T11:43:17;97792.44;;;12.90;42.49
1401;BME280;46518;48.842;8.926;2023-04-09T11:45:47;97792.84;;;12.82;41.51
1401;BME280;46518;48.842;8.926;2023-04-09T11:48:17;97783.31;;;12.81;41.88
1401;BME280;46518;48.842;8.926;2023-04-09T11:50:47;97802.59;;;12.99;41.54
1401;BME280;46518;48.842;8.926;2023-04-09T11:53:18;97795.47;;;12.99;41.29
1401;BME280;46518;48.842;8.926;2023-04-09T11:55:50;97784.66;;;13.01;41.31
1401;BME280;46518;48.842;8.926;2023-04-09T11:58:21;97792.84;;;13.21;41.76
1401;BME280;46518;48.842;8.926;2023-04-09T12:00:52;97794.47;;;13.44;42.00
1401;BME280;46518;48.842;8.926;2023-04-09T12:03:29;97771.34;;;13.34;40.91
1401;BME280;46518;48.842;8.926;2023-04-09T12:06:00;97788.28;;;13.55;40.88
1401;BME280;46518;48.842;8.926;2023-04-09T12:08:30;97776.41;;;13.58;42.12
1401;BME280;46518;48.842;8.926;2023-04-09T12:11:11;97790.97;;;13.00;44.23
1401;BME280;46518;48.842;8.926;2023-04-09T12:13:40;97795.09;;;13.51;43.90
1401;BME280;46518;48.842;8.926;2023-04-09T12:16:11;97770.94;;;13.70;42.37
1401;BME280;46518;48.842;8.926;2023-04-09T12:18:40;97789.03;;;13.78;41.47
1401;BME280;46518;48.842;8.926;2023-04-09T12:21:09;97776.19;;;13.65;42.06
1401;BME280;46518;48.842;8.926;2023-04-09T12:23:37;97778.09;;;13.47;41.30
1401;BME280;46518;48.842;8.926;2023-04-09T12:26:06;97791.81;;;13.44;42.14
1401;BME280;46518;48.842;8.926;2023-04-09T12:28:36;97767.22;;;13.44;41.99
1401;BME280;46518;48.842;8.926;2023-04-09T12:31:08;97781.03;;;13.73;41.37
1401;BME280;46518;48.842;8.926;2023-04-09T12:33:37;97773.97;;;13.78;41.83
1401;BME280;46518;48.842;8.926;2023-04-09T12:36:07;97760.72;;;13.78;42.05
1401;BME280;46518;48.842;8.926;2023-04-09T12:38:35;97758.38;;;13.82;41.67
1401;BME280;46518;48.842;8.926;2023-04-09T12:41:04;97770.75;;;14.03;41.17
1401;BME280;46518;48.842;8.926;2023-04-09T12:43:33;97769.97;;;14.03;42.08
1401;BME280;46518;48.842;8.926;2023-04-09T12:46:03;97750.19;;;13.84;41.51
1401;BME280;46518;48.842;8.926;2023-04-09T12:48:32;97765.53;;;14.14;41.21
1401;BME280;46518;48.842;8.926;2023-04-09T12:51:01;97743.94;;;13.95;42.97
1401;BME280;46518;48.842;8.926;2023-04-09T12:53:30;97742.56;;;14.19;41.42
1401;BME280;46518;48.842;8.926;2023-04-09T12:55:59;97766.16;;;13.94;42.62
1401;BME280;46518;48.842;8.926;2023-04-09T12:58:31;97733.78;;;13.32;42.46
1401;BME280;46518;48.842;8.926;2023-04-09T13:01:00;97746.09;;;13.44;44.01
1401;BME280;46518;48.842;8.926;2023-04-09T13:03:32;97738.22;;;13.76;41.87
1401;BME280;46518;48.842;8.926;2023-04-09T13:06:02;97735.56;;;13.76;40.98
1401;BME280;46518;48.842;8.926;2023-04-09T13:08:30;97755.47;;;13.84;41.14
1401;BME280;46518;48.842;8.926;2023-04-09T13:10:59;97762.44;;;13.41;40.90
1401;BME280;46518;48.842;8.926;2023-04-09T13:13:29;97750.75;;;13.36;41.97
1401;BME280;46518;48.842;8.926;2023-04-09T13:15:57;97753.63;;;13.57;42.50
1401;BME280;46518;48.842;8.926;2023-04-09T13:18:26;97742.16;;;13.73;42.45
1401;BME280;46518;48.842;8.926;2023-04-09T13:20:56;97754.91;;;14.09;42.09
1401;BME280;46518;48.842;8.926;2023-04-09T13:23:25;97725.97;;;13.97;41.11
1401;BME280;46518;48.842;8.926;2023-04-09T13:25:54;97725.81;;;14.09;41.18
1401;BME280;46518;48.842;8.926;2023-04-09T13:28:23;97718.44;;;14.16;40.31
1401;BME280;46518;48.842;8.926;2023-04-09T13:30:52;97736.25;;;14.26;40.30
1401;BME280;46518;48.842;8.926;2023-04-09T13:33:21;97723.06;;;14.31;40.56
1401;BME280;46518;48.842;8.926;2023-04-09T13:35:50;97722.50;;;14.29;39.60
1401;BME280;46518;48.842;8.926;2023-04-09T13:38:19;97717.81;;;14.41;40.06
1401;BME280;46518;48.842;8.926;2023-04-09T13:40:48;97732.06;;;14.72;41.06
1401;BME280;46518;48.842;8.926;2023-04-09T13:43:17;97723.25;;;14.56;39.66
1401;BME280;46518;48.842;8.926;2023-04-09T13:45:45;97725.25;;;14.81;39.29
1401;BME280;46518;48.842;8.926;2023-04-09T13:48:15;97717.59;;;14.90;40.46